sensor_id;sensor_type;location;lat;lon;timestamp;P1;durP1;ratioP1;P2;durP2;ratioP2
21681;SDS011;11002;48.256;10.084;2023-02-01T00:00:36;4.85;;;3.78;;
21681;SDS011;11002;48.256;10.084;2023-02-01T00:03:03;5.05;;;3.53;;
21681;SDS011;11002;48.256;10.084;2023-02-01T00:05:33;6.95;;;4.00;;
21681;SDS011;11002;48.256;10.084;2023-02-01T00:08:01;10.00;;;4.20;;
21681;SDS011;11002;48.256;10.084;2023-02-01T00:10:28;7.75;;;3.88;;
21681;SDS011;11002;48.256;10.084;2023-02-01T00:12:55;7.60;;;4.07;;
21681;SDS011;11002;48.256;10.084;2023-02-01T00:15:24;6.32;;;3.90;;
21681;SDS011;11002;48.256;10.084;2023-02-01T00:17:52;7.90;;;4.15;;
21681;SDS011;11002;48.256;10.084;2023-02-01T00:20:20;5.60;;;3.45;;
21681;SDS011;11002;48.256;10.084;2023-02-01T00:22:48;6.80;;;3.85;;
21681;SDS011;11002;48.256;10.084;2023-02-01T00:25:15;6.47;;;3.80;;
21681;SDS011;11002;48.256;10.084;2023-02-01T00:27:42;5.88;;;4.15;;
21681;SDS011;11002;48.256;10.084;2023-02-01T00:30:10;7.80;;;4.18;;
21681;SDS011;11002;48.256;10.084;2023-02-01T00:32:39;7.93;;;4.80;;
21681;SDS011;11002;48.256;10.084;2023-02-01T00:35:07;5.57;;;3.80;;
21681;SDS011;11002;48.256;10.084;2023-02-01T00:37:36;5.30;;;3.78;;
21681;SDS011;11002;48.256;10.084;2023-02-01T00:40:04;4.68;;;3.75;;
21681;SDS011;11002;48.256;10.084;2023-02-01T00:42:32;5.60;;;4.22;;
21681;SDS011;11002;48.256;10.084;2023-02-01T00:44:59;6.45;;;4.07;;
21681;SDS011;11002;48.256;10.084;2023-02-01T00:47:26;8.73;;;4.55;;
21681;SDS011;11002;48.256;10.084;2023-02-01T00:49:57;7.55;;;4.20;;
21681;SDS011;11002;48.256;10.084;2023-02-01T00:52:26;5.20;;;3.67;;
21681;SDS011;11002;48.256;10.084;2023-02-01T00:54:53;5.80;;;4.45;;
21681;SDS011;11002;48.256;10.084;2023-02-01T00:57:21;9.00;;;4.47;;
21681;SDS011;11002;48.256;10.084;2023-02-01T00:59:48;4.72;;;4.00;;
21681;SDS011;11002;48.256;10.084;2023-02-01T01:02:15;6.15;;;4.50;;
21681;SDS011;11002;48.256;10.084;2023-02-01T01:04:43;7.20;;;4.10;;
21681;SDS011;11002;48.256;10.084;2023-02-01T01:07:12;6.07;;;4.75;;
21681;SDS011;11002;48.256;10.084;2023-02-01T01:09:39;7.35;;;4.40;;
21681;SDS011;11002;48.256;10.084;2023-02-01T01:12:06;5.78;;;4.05;;
21681;SDS011;11002;48.256;10.084;2023-02-01T01:14:34;10.07;;;5.35;;
21681;SDS011;11002;48.256;10.084;2023-02-01T01:17:01;6.55;;;4.82;;
21681;SDS011;11002;48.256;10.084;2023-02-01T01:19:29;6.95;;;4.50;;
21681;SDS011;11002;48.256;10.084;2023-02-01T01:21:56;5.85;;;4.65;;
21681;SDS011;11002;48.256;10.084;2023-02-01T01:24:25;6.22;;;4.45;;
21681;SDS011;11002;48.256;10.084;2023-02-01T01:26:52;8.18;;;5.10;;
21681;SDS011;11002;48.256;10.084;2023-02-01T01:29:19;8.30;;;4.63;;
21681;SDS011;11002;48.256;10.084;2023-02-01T01:31:47;8.63;;;4.63;;
21681;SDS011;11002;48.256;10.084;2023-02-01T01:34:14;7.80;;;4.85;;
21681;SDS011;11002;48.256;10.084;2023-02-01T01:36:42;9.55;;;5.10;;
21681;SDS011;11002;48.256;10.084;2023-02-01T01:39:09;6.43;;;4.63;;
21681;SDS011;11002;48.256;10.084;2023-02-01T01:41:38;6.45;;;4.53;;
21681;SDS011;11002;48.256;10.084;2023-02-01T01:47:18;7.97;;;4.47;;
21681;SDS011;11002;48.256;10.084;2023-02-01T01:49:45;8.20;;;4.90;;
21681;SDS011;11002;48.256;10.084;2023-02-01T01:52:13;6.50;;;4.57;;
21681;SDS011;11002;48.256;10.084;2023-02-01T01:54:42;7.05;;;4.47;;
21681;SDS011;11002;48.256;10.084;2023-02-01T01:57:14;6.88;;;4.85;;
21681;SDS011;11002;48.256;10.084;2023-02-01T01:59:46;10.52;;;4.88;;
21681;SDS011;11002;48.256;10.084;2023-02-01T02:02:16;8.63;;;4.75;;
21681;SDS011;11002;48.256;10.084;2023-02-01T02:04:45;6.95;;;4.50;;
21681;SDS011;11002;48.256;10.084;2023-02-01T02:07:14;5.65;;;3.75;;
21681;SDS011;11002;48.256;10.084;2023-02-01T02:09:45;4.80;;;3.90;;
21681;SDS011;11002;48.256;10.084;2023-02-01T02:12:14;6.50;;;4.50;;
21681;SDS011;11002;48.256;10.084;2023-02-01T02:14:42;6.57;;;4.47;;
21681;SDS011;11002;48.256;10.084;2023-02-01T02:17:13;5.22;;;4.38;;
21681;SDS011;11002;48.256;10.084;2023-02-01T02:25:56;5.65;;;4.07;;
21681;SDS011;11002;48.256;10.084;2023-02-01T02:28:51;6.65;;;4.05;;
21681;SDS011;11002;48.256;10.084;2023-02-01T02:34:51;5.30;;;3.80;;
21681;SDS011;11002;48.256;10.084;2023-02-01T02:41:16;5.93;;;3.95;;
21681;SDS011;11002;48.256;10.084;2023-02-01T02:44:00;6.63;;;3.63;;
21681;SDS011;11002;48.256;10.084;2023-02-01T02:46:53;6.97;;;3.50;;
21681;SDS011;11002;48.256;10.084;2023-02-01T02:49:48;5.60;;;3.90;;
21681;SDS011;11002;48.256;10.084;2023-02-01T02:52:32;5.60;;;3.67;;
21681;SDS011;11002;48.256;10.084;2023-02-01T02:55:19;4.35;;;3.58;;
21681;SDS011;11002;48.256;10.084;2023-02-01T02:57:46;6.30;;;4.13;;
21681;SDS011;11002;48.256;10.084;2023-02-01T03:00:32;5.57;;;3.28;;
21681;SDS011;11002;48.256;10.084;2023-02-01T03:03:19;4.13;;;3.38;;
21681;SDS011;11002;48.256;10.084;2023-02-01T03:06:12;4.28;;;2.92;;
21681;SDS011;11002;48.256;10.084;2023-02-01T03:09:30;4.45;;;3.47;;
21681;SDS011;11002;48.256;10.084;2023-02-01T03:11:42;4.28;;;3.38;;
21681;SDS011;11002;48.256;10.084;2023-02-01T03:14:31;4.50;;;3.28;;
21681;SDS011;11002;48.256;10.084;2023-02-01T03:17:03;4.35;;;2.72;;
21681;SDS011;11002;48.256;10.084;2023-02-01T03:19:34;3.85;;;3.03;;
21681;SDS011;11002;48.256;10.084;2023-02-01T03:22:11;3.47;;;3.08;;
21681;SDS011;11002;48.256;10.084;2023-02-01T03:24:43;6.38;;;3.10;;
21681;SDS011;11002;48.256;10.084;2023-02-01T03:27:14;4.00;;;2.95;;
21681;SDS011;11002;48.256;10.084;2023-02-01T03:30:02;4.22;;;3.05;;
21681;SDS011;11002;48.256;10.084;2023-02-01T03:32:48;4.53;;;2.78;;
21681;SDS011;11002;48.256;10.084;2023-02-01T03:35:32;5.25;;;2.50;;
21681;SDS011;11002;48.256;10.084;2023-02-01T03:38:06;5.57;;;3.00;;
21681;SDS011;11002;48.256;10.084;2023-02-01T03:40:39;5.35;;;3.10;;
21681;SDS011;11002;48.256;10.084;2023-02-01T03:43:14;3.63;;;2.88;;
21681;SDS011;11002;48.256;10.084;2023-02-01T03:45:54;4.68;;;2.65;;
21681;SDS011;11002;48.256;10.084;2023-02-01T03:48:26;4.28;;;2.90;;
21681;SDS011;11002;48.256;10.084;2023-02-01T03:50:58;3.78;;;2.63;;
21681;SDS011;11002;48.256;10.084;2023-02-01T03:53:29;3.70;;;3.03;;
21681;SDS011;11002;48.256;10.084;2023-02-01T03:55:58;4.18;;;2.53;;
21681;SDS011;11002;48.256;10.084;2023-02-01T03:58:25;3.88;;;2.85;;
21681;SDS011;11002;48.256;10.084;2023-02-01T04:00:53;4.15;;;2.42;;
21681;SDS011;11002;48.256;10.084;2023-02-01T04:03:23;3.22;;;2.67;;
21681;SDS011;11002;48.256;10.084;2023-02-01T04:05:51;3.58;;;2.83;;
21681;SDS011;11002;48.256;10.084;2023-02-01T04:08:23;5.28;;;3.20;;
21681;SDS011;11002;48.256;10.084;2023-02-01T04:10:52;5.30;;;2.90;;
21681;SDS011;11002;48.256;10.084;2023-02-01T04:13:19;5.80;;;2.88;;
21681;SDS011;11002;48.256;10.084;2023-02-01T04:15:46;4.60;;;2.78;;
21681;SDS011;11002;48.256;10.084;2023-02-01T04:18:15;3.35;;;2.75;;
21681;SDS011;11002;48.256;10.084;2023-02-01T04:20:43;3.78;;;2.65;;
21681;SDS011;11002;48.256;10.084;2023-02-01T04:23:11;3.35;;;2.80;;
21681;SDS011;11002;48.256;10.084;2023-02-01T04:25:39;5.57;;;3.40;;
21681;SDS011;11002;48.256;10.084;2023-02-01T04:28:08;4.50;;;2.85;;
21681;SDS011;11002;48.256;10.084;2023-02-01T04:30:35;4.00;;;3.10;;
21681;SDS011;11002;48.256;10.084;2023-02-01T04:33:02;5.25;;;3.17;;
21681;SDS011;11002;48.256;10.084;2023-02-01T04:35:31;5.13;;;3.35;;
21681;SDS011;11002;48.256;10.084;2023-02-01T04:37:59;4.85;;;3.22;;
21681;SDS011;11002;48.256;10.084;2023-02-01T04:40:26;4.13;;;3.15;;
21681;SDS011;11002;48.256;10.084;2023-02-01T04:42:53;5.82;;;3.40;;
21681;SDS011;11002;48.256;10.084;2023-02-01T04:45:22;5.55;;;3.63;;
21681;SDS011;11002;48.256;10.084;2023-02-01T04:47:49;5.10;;;3.53;;
21681;SDS011;11002;48.256;10.084;2023-02-01T04:50:16;4.80;;;3.35;;
21681;SDS011;11002;48.256;10.084;2023-02-01T04:52:44;4.75;;;3.55;;
21681;SDS011;11002;48.256;10.084;2023-02-01T04:55:11;4.65;;;3.28;;
21681;SDS011;11002;48.256;10.084;2023-02-01T04:57:39;4.97;;;3.85;;
21681;SDS011;11002;48.256;10.084;2023-02-01T05:00:07;4.30;;;3.40;;
21681;SDS011;11002;48.256;10.084;2023-02-01T05:02:37;4.82;;;3.47;;
21681;SDS011;11002;48.256;10.084;2023-02-01T05:05:05;8.00;;;5.10;;
21681;SDS011;11002;48.256;10.084;2023-02-01T05:07:32;7.22;;;4.75;;
21681;SDS011;11002;48.256;10.084;2023-02-01T05:09:59;4.68;;;3.40;;
21681;SDS011;11002;48.256;10.084;2023-02-01T05:12:27;5.85;;;3.53;;
21681;SDS011;11002;48.256;10.084;2023-02-01T05:15:12;6.38;;;3.95;;
21681;SDS011;11002;48.256;10.084;2023-02-01T05:17:41;5.75;;;3.90;;
21681;SDS011;11002;48.256;10.084;2023-02-01T05:20:09;5.22;;;3.72;;
21681;SDS011;11002;48.256;10.084;2023-02-01T05:22:37;4.93;;;3.58;;
21681;SDS011;11002;48.256;10.084;2023-02-01T05:25:04;5.82;;;3.85;;
21681;SDS011;11002;48.256;10.084;2023-02-01T05:27:32;7.22;;;4.05;;
21681;SDS011;11002;48.256;10.084;2023-02-01T05:29:59;5.20;;;4.22;;
21681;SDS011;11002;48.256;10.084;2023-02-01T05:32:26;6.88;;;3.58;;
21681;SDS011;11002;48.256;10.084;2023-02-01T05:34:55;4.70;;;3.80;;
21681;SDS011;11002;48.256;10.084;2023-02-01T05:37:23;6.28;;;3.90;;
21681;SDS011;11002;48.256;10.084;2023-02-01T05:39:50;8.27;;;4.25;;
21681;SDS011;11002;48.256;10.084;2023-02-01T05:42:17;5.63;;;4.07;;
21681;SDS011;11002;48.256;10.084;2023-02-01T05:44:45;5.95;;;4.07;;
21681;SDS011;11002;48.256;10.084;2023-02-01T05:47:12;4.75;;;3.42;;
21681;SDS011;11002;48.256;10.084;2023-02-01T05:49:40;7.10;;;4.00;;
21681;SDS011;11002;48.256;10.084;2023-02-01T05:52:08;5.63;;;3.75;;
21681;SDS011;11002;48.256;10.084;2023-02-01T05:54:36;7.50;;;4.20;;
21681;SDS011;11002;48.256;10.084;2023-02-01T05:57:03;5.25;;;4.20;;
21681;SDS011;11002;48.256;10.084;2023-02-01T05:59:30;6.70;;;3.70;;
21681;SDS011;11002;48.256;10.084;2023-02-01T06:01:57;4.50;;;3.58;;
21681;SDS011;11002;48.256;10.084;2023-02-01T06:04:25;5.75;;;3.30;;
21681;SDS011;11002;48.256;10.084;2023-02-01T06:06:52;5.93;;;4.22;;
21681;SDS011;11002;48.256;10.084;2023-02-01T06:09:21;3.80;;;3.25;;
21681;SDS011;11002;48.256;10.084;2023-02-01T06:11:48;4.38;;;3.22;;
21681;SDS011;11002;48.256;10.084;2023-02-01T06:14:16;5.38;;;3.88;;
21681;SDS011;11002;48.256;10.084;2023-02-01T06:16:43;6.15;;;3.67;;
21681;SDS011;11002;48.256;10.084;2023-02-01T06:19:11;3.85;;;3.13;;
21681;SDS011;11002;48.256;10.084;2023-02-01T06:21:39;6.85;;;3.63;;
21681;SDS011;11002;48.256;10.084;2023-02-01T06:24:06;5.93;;;3.58;;
21681;SDS011;11002;48.256;10.084;2023-02-01T06:26:35;6.03;;;4.13;;
21681;SDS011;11002;48.256;10.084;2023-02-01T06:29:04;6.43;;;3.70;;
21681;SDS011;11002;48.256;10.084;2023-02-01T06:31:31;5.88;;;3.95;;
21681;SDS011;11002;48.256;10.084;2023-02-01T06:33:59;7.00;;;3.95;;
21681;SDS011;11002;48.256;10.084;2023-02-01T06:36:28;6.43;;;4.22;;
21681;SDS011;11002;48.256;10.084;2023-02-01T06:38:56;4.78;;;3.97;;
21681;SDS011;11002;48.256;10.084;2023-02-01T06:41:24;6.68;;;3.90;;
21681;SDS011;11002;48.256;10.084;2023-02-01T06:43:53;5.00;;;3.70;;
21681;SDS011;11002;48.256;10.084;2023-02-01T06:46:21;6.00;;;4.07;;
21681;SDS011;11002;48.256;10.084;2023-02-01T06:48:48;4.68;;;3.78;;
21681;SDS011;11002;48.256;10.084;2023-02-01T06:51:18;5.45;;;3.40;;
21681;SDS011;11002;48.256;10.084;2023-02-01T06:53:47;5.50;;;3.90;;
21681;SDS011;11002;48.256;10.084;2023-02-01T06:56:17;5.60;;;3.92;;
21681;SDS011;11002;48.256;10.084;2023-02-01T06:58:45;5.07;;;3.13;;
21681;SDS011;11002;48.256;10.084;2023-02-01T07:01:14;6.88;;;3.65;;
21681;SDS011;11002;48.256;10.084;2023-02-01T07:03:42;4.88;;;3.63;;
21681;SDS011;11002;48.256;10.084;2023-02-01T07:06:13;4.75;;;3.45;;
21681;SDS011;11002;48.256;10.084;2023-02-01T07:08:40;4.10;;;3.38;;
21681;SDS011;11002;48.256;10.084;2023-02-01T07:11:08;6.20;;;3.72;;
21681;SDS011;11002;48.256;10.084;2023-02-01T07:13:37;5.15;;;3.85;;
21681;SDS011;11002;48.256;10.084;2023-02-01T07:16:06;5.00;;;3.65;;
21681;SDS011;11002;48.256;10.084;2023-02-01T07:18:37;5.60;;;3.47;;
21681;SDS011;11002;48.256;10.084;2023-02-01T07:21:05;4.13;;;3.40;;
21681;SDS011;11002;48.256;10.084;2023-02-01T07:23:32;5.95;;;3.60;;
21681;SDS011;11002;48.256;10.084;2023-02-01T07:26:00;6.03;;;4.25;;
21681;SDS011;11002;48.256;10.084;2023-02-01T07:28:30;4.95;;;3.60;;
21681;SDS011;11002;48.256;10.084;2023-02-01T07:31:01;5.47;;;4.00;;
21681;SDS011;11002;48.256;10.084;2023-02-01T07:33:29;5.60;;;3.92;;
21681;SDS011;11002;48.256;10.084;2023-02-01T07:35:59;6.07;;;3.88;;
21681;SDS011;11002;48.256;10.084;2023-02-01T07:38:28;4.43;;;3.67;;
21681;SDS011;11002;48.256;10.084;2023-02-01T07:40:58;5.90;;;3.45;;
21681;SDS011;11002;48.256;10.084;2023-02-01T07:43:26;5.25;;;3.75;;
21681;SDS011;11002;48.256;10.084;2023-02-01T07:45:54;5.78;;;3.78;;
21681;SDS011;11002;48.256;10.084;2023-02-01T07:48:22;5.93;;;3.92;;
21681;SDS011;11002;48.256;10.084;2023-02-01T07:50:56;4.70;;;3.35;;
21681;SDS011;11002;48.256;10.084;2023-02-01T07:53:26;6.25;;;3.72;;
21681;SDS011;11002;48.256;10.084;2023-02-01T07:55:53;5.05;;;3.47;;
21681;SDS011;11002;48.256;10.084;2023-02-01T07:58:22;5.30;;;3.38;;
21681;SDS011;11002;48.256;10.084;2023-02-01T08:00:50;6.35;;;3.83;;
21681;SDS011;11002;48.256;10.084;2023-02-01T08:03:36;4.88;;;3.58;;
21681;SDS011;11002;48.256;10.084;2023-02-01T08:06:05;4.72;;;3.70;;
21681;SDS011;11002;48.256;10.084;2023-02-01T08:08:32;5.65;;;3.60;;
21681;SDS011;11002;48.256;10.084;2023-02-01T08:11:00;6.80;;;3.45;;
21681;SDS011;11002;48.256;10.084;2023-02-01T08:13:29;4.25;;;3.00;;
21681;SDS011;11002;48.256;10.084;2023-02-01T08:15:57;5.30;;;3.90;;
21681;SDS011;11002;48.256;10.084;2023-02-01T08:18:25;4.55;;;3.58;;
21681;SDS011;11002;48.256;10.084;2023-02-01T08:20:53;7.35;;;4.75;;
21681;SDS011;11002;48.256;10.084;2023-02-01T08:23:22;7.78;;;4.22;;
21681;SDS011;11002;48.256;10.084;2023-02-01T08:25:50;7.68;;;4.70;;
21681;SDS011;11002;48.256;10.084;2023-02-01T08:28:17;6.15;;;4.45;;
21681;SDS011;11002;48.256;10.084;2023-02-01T08:30:45;6.45;;;4.30;;
21681;SDS011;11002;48.256;10.084;2023-02-01T08:33:12;6.82;;;4.50;;
21681;SDS011;11002;48.256;10.084;2023-02-01T08:35:40;7.90;;;4.35;;
21681;SDS011;11002;48.256;10.084;2023-02-01T08:38:07;6.55;;;4.22;;
21681;SDS011;11002;48.256;10.084;2023-02-01T08:40:36;5.68;;;4.43;;
21681;SDS011;11002;48.256;10.084;2023-02-01T08:43:03;5.90;;;4.90;;
21681;SDS011;11002;48.256;10.084;2023-02-01T08:45:30;5.40;;;4.03;;
21681;SDS011;11002;48.256;10.084;2023-02-01T08:47:58;5.97;;;3.78;;
21681;SDS011;11002;48.256;10.084;2023-02-01T08:50:26;4.32;;;3.47;;
21681;SDS011;11002;48.256;10.084;2023-02-01T08:52:53;6.30;;;4.45;;
21681;SDS011;11002;48.256;10.084;2023-02-01T08:55:21;7.45;;;4.43;;
21681;SDS011;11002;48.256;10.084;2023-02-01T08:57:50;5.15;;;3.95;;
21681;SDS011;11002;48.256;10.084;2023-02-01T09:00:17;5.43;;;4.28;;
21681;SDS011;11002;48.256;10.084;2023-02-01T09:02:45;5.55;;;4.38;;
21681;SDS011;11002;48.256;10.084;2023-02-01T09:05:12;5.78;;;3.53;;
21681;SDS011;11002;48.256;10.084;2023-02-01T09:07:41;5.75;;;3.90;;
21681;SDS011;11002;48.256;10.084;2023-02-01T09:10:09;6.30;;;3.47;;
21681;SDS011;11002;48.256;10.084;2023-02-01T09:12:37;4.70;;;3.58;;
21681;SDS011;11002;48.256;10.084;2023-02-01T09:15:07;6.82;;;3.30;;
21681;SDS011;11002;48.256;10.084;2023-02-01T09:17:36;5.70;;;3.28;;
21681;SDS011;11002;48.256;10.084;2023-02-01T09:20:04;4.70;;;3.25;;
21681;SDS011;11002;48.256;10.084;2023-02-01T09:22:32;4.10;;;2.88;;
21681;SDS011;11002;48.256;10.084;2023-02-01T09:24:59;4.75;;;3.50;;
21681;SDS011;11002;48.256;10.084;2023-02-01T09:27:26;5.18;;;2.80;;
21681;SDS011;11002;48.256;10.084;2023-02-01T09:29:54;4.90;;;3.20;;
21681;SDS011;11002;48.256;10.084;2023-02-01T09:32:23;6.47;;;2.70;;
21681;SDS011;11002;48.256;10.084;2023-02-01T09:34:50;4.10;;;2.88;;
21681;SDS011;11002;48.256;10.084;2023-02-01T09:37:18;3.72;;;2.95;;
21681;SDS011;11002;48.256;10.084;2023-02-01T09:39:46;4.55;;;2.80;;
21681;SDS011;11002;48.256;10.084;2023-02-01T09:42:20;3.58;;;2.80;;
21681;SDS011;11002;48.256;10.084;2023-02-01T09:45:01;3.05;;;2.35;;
21681;SDS011;11002;48.256;10.084;2023-02-01T09:47:38;3.47;;;2.67;;
21681;SDS011;11002;48.256;10.084;2023-02-01T09:50:13;3.33;;;2.58;;
21681;SDS011;11002;48.256;10.084;2023-02-01T09:52:45;3.35;;;2.72;;
21681;SDS011;11002;48.256;10.084;2023-02-01T09:55:21;3.47;;;2.60;;
21681;SDS011;11002;48.256;10.084;2023-02-01T09:57:58;3.70;;;2.50;;
21681;SDS011;11002;48.256;10.084;2023-02-01T10:00:29;3.35;;;2.70;;
21681;SDS011;11002;48.256;10.084;2023-02-01T10:03:02;3.00;;;2.50;;
21681;SDS011;11002;48.256;10.084;2023-02-01T10:05:37;6.80;;;3.55;;
21681;SDS011;11002;48.256;10.084;2023-02-01T10:08:18;3.97;;;3.05;;
21681;SDS011;11002;48.256;10.084;2023-02-01T10:10:51;3.45;;;3.13;;
21681;SDS011;11002;48.256;10.084;2023-02-01T10:13:26;3.70;;;3.03;;
21681;SDS011;11002;48.256;10.084;2023-02-01T10:16:15;3.30;;;2.63;;
21681;SDS011;11002;48.256;10.084;2023-02-01T10:18:54;6.05;;;3.00;;
21681;SDS011;11002;48.256;10.084;2023-02-01T10:21:32;5.85;;;2.88;;
21681;SDS011;11002;48.256;10.084;2023-02-01T10:24:16;5.57;;;3.10;;
21681;SDS011;11002;48.256;10.084;2023-02-01T10:26:59;6.38;;;3.22;;
21681;SDS011;11002;48.256;10.084;2023-02-01T10:29:34;5.63;;;3.65;;
21681;SDS011;11002;48.256;10.084;2023-02-01T10:32:07;4.30;;;3.47;;
21681;SDS011;11002;48.256;10.084;2023-02-01T10:34:40;4.22;;;3.50;;
21681;SDS011;11002;48.256;10.084;2023-02-01T10:37:16;4.20;;;3.25;;
21681;SDS011;11002;48.256;10.084;2023-02-01T10:39:55;5.00;;;3.40;;
21681;SDS011;11002;48.256;10.084;2023-02-01T10:42:25;4.35;;;3.25;;
21681;SDS011;11002;48.256;10.084;2023-02-01T10:44:54;4.43;;;3.40;;
21681;SDS011;11002;48.256;10.084;2023-02-01T10:47:24;6.05;;;2.88;;
21681;SDS011;11002;48.256;10.084;2023-02-01T10:49:54;3.95;;;3.20;;
21681;SDS011;11002;48.256;10.084;2023-02-01T10:52:30;4.43;;;3.25;;
21681;SDS011;11002;48.256;10.084;2023-02-01T10:57:55;3.55;;;3.00;;
21681;SDS011;11002;48.256;10.084;2023-02-01T11:00:23;8.50;;;3.10;;
21681;SDS011;11002;48.256;10.084;2023-02-01T11:02:51;4.07;;;3.38;;
21681;SDS011;11002;48.256;10.084;2023-02-01T11:05:21;4.18;;;2.70;;
21681;SDS011;11002;48.256;10.084;2023-02-01T11:07:49;4.28;;;3.28;;
21681;SDS011;11002;48.256;10.084;2023-02-01T11:10:34;5.55;;;3.17;;
21681;SDS011;11002;48.256;10.084;2023-02-01T11:13:03;6.45;;;3.13;;
21681;SDS011;11002;48.256;10.084;2023-02-01T11:15:31;3.38;;;2.72;;
21681;SDS011;11002;48.256;10.084;2023-02-01T11:18:07;4.82;;;2.50;;
21681;SDS011;11002;48.256;10.084;2023-02-01T11:20:43;2.95;;;2.58;;
21681;SDS011;11002;48.256;10.084;2023-02-01T11:23:15;3.30;;;2.65;;
21681;SDS011;11002;48.256;10.084;2023-02-01T11:25:47;3.90;;;2.97;;
21681;SDS011;11002;48.256;10.084;2023-02-01T11:28:16;4.85;;;2.90;;
21681;SDS011;11002;48.256;10.084;2023-02-01T11:30:46;5.10;;;2.83;;
21681;SDS011;11002;48.256;10.084;2023-02-01T11:33:15;4.05;;;3.00;;
21681;SDS011;11002;48.256;10.084;2023-02-01T11:35:46;8.27;;;2.90;;
21681;SDS011;11002;48.256;10.084;2023-02-01T11:38:19;5.82;;;3.08;;
21681;SDS011;11002;48.256;10.084;2023-02-01T11:40:48;5.07;;;2.88;;
21681;SDS011;11002;48.256;10.084;2023-02-01T11:43:22;7.32;;;3.33;;
21681;SDS011;11002;48.256;10.084;2023-02-01T11:45:54;7.32;;;3.67;;
21681;SDS011;11002;48.256;10.084;2023-02-01T11:48:24;4.95;;;2.92;;
21681;SDS011;11002;48.256;10.084;2023-02-01T11:50:57;3.92;;;2.85;;
21681;SDS011;11002;48.256;10.084;2023-02-01T11:53:50;3.78;;;2.42;;
21681;SDS011;11002;48.256;10.084;2023-02-01T11:56:29;6.50;;;2.58;;
21681;SDS011;11002;48.256;10.084;2023-02-01T11:59:06;4.30;;;3.13;;
21681;SDS011;11002;48.256;10.084;2023-02-01T12:01:55;5.85;;;2.80;;
21681;SDS011;11002;48.256;10.084;2023-02-01T12:04:50;6.30;;;2.75;;
21681;SDS011;11002;48.256;10.084;2023-02-01T12:07:36;7.22;;;3.30;;
21681;SDS011;11002;48.256;10.084;2023-02-01T12:10:19;5.00;;;3.20;;
21681;SDS011;11002;48.256;10.084;2023-02-01T12:13:00;6.68;;;3.88;;
21681;SDS011;11002;48.256;10.084;2023-02-01T12:15:42;4.47;;;3.25;;
21681;SDS011;11002;48.256;10.084;2023-02-01T12:21:20;5.85;;;3.53;;
21681;SDS011;11002;48.256;10.084;2023-02-01T12:24:01;4.85;;;2.75;;
21681;SDS011;11002;48.256;10.084;2023-02-01T12:27:14;5.13;;;3.05;;
21681;SDS011;11002;48.256;10.084;2023-02-01T12:33:03;4.10;;;2.88;;
21681;SDS011;11002;48.256;10.084;2023-02-01T12:38:39;5.50;;;3.25;;
21681;SDS011;11002;48.256;10.084;2023-02-01T12:41:22;4.93;;;3.07;;
21681;SDS011;11002;48.256;10.084;2023-02-01T12:44:24;8.45;;;3.58;;
21681;SDS011;11002;48.256;10.084;2023-02-01T12:46:57;6.45;;;3.65;;
21681;SDS011;11002;48.256;10.084;2023-02-01T12:49:29;7.18;;;3.60;;
21681;SDS011;11002;48.256;10.084;2023-02-01T12:52:02;4.65;;;3.60;;
21681;SDS011;11002;48.256;10.084;2023-02-01T12:54:34;5.93;;;3.97;;
21681;SDS011;11002;48.256;10.084;2023-02-01T12:57:06;6.45;;;4.10;;
21681;SDS011;11002;48.256;10.084;2023-02-01T12:59:40;6.45;;;4.60;;
21681;SDS011;11002;48.256;10.084;2023-02-01T13:02:12;7.72;;;4.72;;
21681;SDS011;11002;48.256;10.084;2023-02-01T13:04:49;5.82;;;3.92;;
21681;SDS011;11002;48.256;10.084;2023-02-01T13:07:25;5.90;;;3.72;;
21681;SDS011;11002;48.256;10.084;2023-02-01T13:09:57;6.18;;;3.95;;
21681;SDS011;11002;48.256;10.084;2023-02-01T13:12:33;5.27;;;3.80;;
21681;SDS011;11002;48.256;10.084;2023-02-01T13:15:04;4.13;;;3.42;;
21681;SDS011;11002;48.256;10.084;2023-02-01T13:17:39;5.18;;;3.83;;
21681;SDS011;11002;48.256;10.084;2023-02-01T13:20:13;6.47;;;4.25;;
21681;SDS011;11002;48.256;10.084;2023-02-01T13:22:46;6.72;;;4.13;;
21681;SDS011;11002;48.256;10.084;2023-02-01T13:25:19;6.10;;;4.15;;
21681;SDS011;11002;48.256;10.084;2023-02-01T13:27:58;7.50;;;4.28;;
21681;SDS011;11002;48.256;10.084;2023-02-01T13:30:30;4.97;;;3.28;;
21681;SDS011;11002;48.256;10.084;2023-02-01T13:33:15;6.60;;;3.63;;
21681;SDS011;11002;48.256;10.084;2023-02-01T13:36:05;6.88;;;3.90;;
21681;SDS011;11002;48.256;10.084;2023-02-01T13:38:56;6.07;;;3.03;;
21681;SDS011;11002;48.256;10.084;2023-02-01T13:41:51;4.97;;;2.90;;
21681;SDS011;11002;48.256;10.084;2023-02-01T13:44:22;4.78;;;3.47;;
21681;SDS011;11002;48.256;10.084;2023-02-01T13:46:54;4.95;;;3.08;;
21681;SDS011;11002;48.256;10.084;2023-02-01T13:49:27;8.32;;;3.08;;
21681;SDS011;11002;48.256;10.084;2023-02-01T13:51:57;7.43;;;3.13;;
21681;SDS011;11002;48.256;10.084;2023-02-01T13:54:26;5.03;;;2.72;;
21681;SDS011;11002;48.256;10.084;2023-02-01T13:56:58;3.58;;;2.80;;
21681;SDS011;11002;48.256;10.084;2023-02-01T13:59:46;4.00;;;2.75;;
21681;SDS011;11002;48.256;10.084;2023-02-01T14:02:36;5.53;;;3.15;;
21681;SDS011;11002;48.256;10.084;2023-02-01T14:08:21;7.70;;;3.00;;
21681;SDS011;11002;48.256;10.084;2023-02-01T14:10:50;5.40;;;2.80;;
21681;SDS011;11002;48.256;10.084;2023-02-01T14:13:26;3.08;;;2.78;;
21681;SDS011;11002;48.256;10.084;2023-02-01T14:16:12;3.97;;;2.30;;
21681;SDS011;11002;48.256;10.084;2023-02-01T14:19:00;5.32;;;2.22;;
21681;SDS011;11002;48.256;10.084;2023-02-01T14:21:29;5.78;;;2.30;;
21681;SDS011;11002;48.256;10.084;2023-02-01T14:23:59;3.75;;;2.25;;
21681;SDS011;11002;48.256;10.084;2023-02-01T14:26:41;4.75;;;2.13;;
21681;SDS011;11002;48.256;10.084;2023-02-01T14:29:16;3.67;;;2.30;;
21681;SDS011;11002;48.256;10.084;2023-02-01T14:31:53;7.18;;;2.20;;
21681;SDS011;11002;48.256;10.084;2023-02-01T14:34:34;3.65;;;1.83;;
21681;SDS011;11002;48.256;10.084;2023-02-01T14:37:09;3.38;;;2.10;;
21681;SDS011;11002;48.256;10.084;2023-02-01T14:39:51;6.55;;;2.50;;
21681;SDS011;11002;48.256;10.084;2023-02-01T14:42:25;3.03;;;2.30;;
21681;SDS011;11002;48.256;10.084;2023-02-01T14:44:55;5.20;;;2.70;;
21681;SDS011;11002;48.256;10.084;2023-02-01T14:47:44;9.00;;;2.20;;
21681;SDS011;11002;48.256;10.084;2023-02-01T14:50:27;5.03;;;2.08;;
21681;SDS011;11002;48.256;10.084;2023-02-01T14:53:10;3.67;;;1.95;;
21681;SDS011;11002;48.256;10.084;2023-02-01T14:55:47;5.23;;;1.90;;
21681;SDS011;11002;48.256;10.084;2023-02-01T14:58:29;8.95;;;3.03;;
21681;SDS011;11002;48.256;10.084;2023-02-01T15:01:02;6.40;;;2.05;;
21681;SDS011;11002;48.256;10.084;2023-02-01T15:03:39;4.55;;;1.75;;
21681;SDS011;11002;48.256;10.084;2023-02-01T15:06:20;5.32;;;2.50;;
21681;SDS011;11002;48.256;10.084;2023-02-01T15:09:08;4.93;;;2.10;;
21681;SDS011;11002;48.256;10.084;2023-02-01T15:14:27;7.68;;;2.00;;
21681;SDS011;11002;48.256;10.084;2023-02-01T15:16:56;5.85;;;1.90;;
21681;SDS011;11002;48.256;10.084;2023-02-01T15:19:26;3.13;;;1.33;;
21681;SDS011;11002;48.256;10.084;2023-02-01T15:21:56;6.07;;;1.40;;
21681;SDS011;11002;48.256;10.084;2023-02-01T15:24:26;4.10;;;1.63;;
21681;SDS011;11002;48.256;10.084;2023-02-01T15:26:55;3.22;;;1.48;;
21681;SDS011;11002;48.256;10.084;2023-02-01T15:29:29;8.50;;;1.92;;
21681;SDS011;11002;48.256;10.084;2023-02-01T15:31:58;4.38;;;2.05;;
21681;SDS011;11002;48.256;10.084;2023-02-01T15:37:14;5.10;;;1.50;;
21681;SDS011;11002;48.256;10.084;2023-02-01T15:42:29;7.45;;;2.10;;